Flight Track Log - Related Links

Times and Time Zones

All times are in EDT time to prevent confusion due to time zone crossing. See the EJA922 flight status page for this flight to view local times or setup timezone preferences in your user account.

Time Position Orientation Groundspeed Altitude Reporting Facility
EDT Latitude Longitude Course Direction KTS MPH feet Rate Location/Type
Wed 06:39:23 AM 41.0833 -73.7333 270° West 185 213 1,700  Level New York TRACON
Wed 06:40:23 AM 41.0833 -73.8167 270° West 231 266 4,200 2,550 Climbing New York TRACON
Wed 06:41:23 AM 41.0500 -73.9000 242° Southwest 270 311 6,800 2,550 Climbing New York TRACON
Wed 06:42:23 AM 41.0167 -74.0000 246° West 287 330 9,300 2,300 Climbing New York TRACON
Wed 06:43:23 AM 40.9833 -74.1000 246° West 317 365 11,400 1,800 Climbing New York TRACON
Wed 06:44:23 AM 40.9333 -74.2167 240° Southwest 360 414 12,900 1,600 Climbing New York TRACON
Wed 06:45:23 AM 40.9000 -74.3500 252° West 390 449 14,600 1,270 Climbing New York TRACON
Wed 06:47:32 AM 40.8150 -74.6372 249° West 410 472 16,900 1,111 Climbing New York Center
Wed 06:48:32 AM 40.7772 -74.7719 250° West 433 498 18,100 1,563 Climbing New York Center
Wed 06:49:31 AM 40.7281 -74.9253 247° West 433 498 20,000 1,700 Climbing New York Center
Wed 06:50:32 AM 40.6858 -75.0622 248° West 422 486 21,500 1,438 Climbing New York Center
Wed 06:51:32 AM 40.6286 -75.1981 241° Southwest 422 486 22,900 1,322 Climbing New York Center
Wed 06:52:30 AM 40.5672 -75.3333 239° Southwest 428 493 24,100 1,220 Climbing New York Center
Wed 06:53:30 AM 40.5056 -75.4714 240° Southwest 428 493 25,300 1,082 Climbing New York Center
Wed 06:54:32 AM 40.4417 -75.6086 239° Southwest 440 506 26,300 1,008 Climbing New York Center
Wed 06:55:29 AM 40.3772 -75.7514 239° Southwest 445 512 27,300 1,068 Climbing New York Center
Wed 06:56:30 AM 40.3083 -75.8989 239° Southwest 464 534 28,400 1,073 Climbing New York Center
Wed 06:57:32 AM 40.2422 -76.0300 237° Southwest 477 549 29,500 1,033 Climbing New York Center
Wed 06:58:32 AM 40.1725 -76.1878 240° Southwest 477 549 30,500 974 Climbing New York Center
Wed 06:59:29 AM 40.1036 -76.3236 236° Southwest 482 555 31,400 971 Climbing New York Center
Wed 07:01:25 AM 39.9739 -76.6094 239° Southwest 504 580 33,300 1,069 Climbing Washington Center
Wed 07:02:23 AM 39.8953 -76.7733 238° Southwest 499 574 34,500 1,311 Climbing Washington Center
Wed 07:03:24 AM 39.8250 -76.9261 239° Southwest 499 574 35,900 1,388 Climbing Washington Center
Wed 07:04:24 AM 39.7544 -77.0733 238° Southwest 494 568 37,300 1,388 Climbing Washington Center
Wed 07:05:25 AM 39.6839 -77.2256 239° Southwest 494 568 38,700 1,150 Climbing Washington Center
Wed 07:06:24 AM 39.6108 -77.3747 238° Southwest 494 568 39,600 650 Climbing Washington Center
Wed 07:07:25 AM 39.5397 -77.5292 239° Southwest 494 568 40,000 198 Climbing Washington Center
Wed 07:08:25 AM 39.4642 -77.6883 238° Southwest 501 577 40,000  Level Washington Center
Wed 07:09:25 AM 39.3883 -77.8500 239° Southwest 515 593 40,000  Level Washington Center
Wed 07:10:23 AM 39.3206 -78.0169 242° Southwest 525 604 40,000  Level Washington Center
Wed 07:11:23 AM 39.2589 -78.1731 243° Southwest 531 611 40,000  Level Washington Center
Wed 07:12:24 AM 39.1906 -78.3392 242° Southwest 531 611 40,000  Level Washington Center
Wed 07:13:25 AM 39.1219 -78.5078 242° Southwest 531 611 40,000  Level Washington Center
Wed 07:14:25 AM 39.0533 -78.6736 242° Southwest 525 604 40,000  Level Washington Center
Wed 07:15:24 AM 38.9883 -78.8417 244° Southwest 525 604 40,000  Level Washington Center
Wed 07:16:25 AM 38.9192 -79.0069 242° Southwest 525 604 40,000  Level Washington Center
Wed 07:17:23 AM 38.8517 -79.1769 243° Southwest 525 604 40,000  Level Washington Center
Wed 07:18:24 AM 38.8106 -79.3589 254° West 525 604 40,000  Level Washington Center
Wed 07:19:24 AM 38.7811 -79.5625 260° West 525 604 40,000  Level Washington Center
Wed 07:20:23 AM 38.7436 -79.7467 255° West 533 613 40,000  Level Washington Center
Wed 07:21:23 AM 38.7100 -79.9283 257° West 539 620 40,000  Level Washington Center
Wed 07:21:57 AM 38.6906 -80.0197 255° West 533 613 40,000  Level Indianapolis Center
Wed 07:22:58 AM 38.6561 -80.2031 257° West 530 610 40,000  Level Indianapolis Center
Wed 07:24:00 AM 38.6208 -80.3878 256° West 531 611 40,000  Level Indianapolis Center
Wed 07:25:01 AM 38.5864 -80.5708 257° West 530 610 40,000  Level Indianapolis Center
Wed 07:26:02 AM 38.5511 -80.7561 256° West 534 615 40,000  Level Indianapolis Center
Wed 07:27:04 AM 38.5150 -80.9406 256° West 534 615 40,000  Level Indianapolis Center
Wed 07:28:05 AM 38.4783 -81.1253 256° West 533 613 40,000  Level Indianapolis Center
Wed 07:29:06 AM 38.4408 -81.3117 256° West 534 615 40,000  Level Indianapolis Center
Wed 07:30:08 AM 38.4033 -81.4983 256° West 534 615 40,000  Level Indianapolis Center
Wed 07:31:09 AM 38.3667 -81.6850 256° West 535 616 40,000  Level Indianapolis Center
Wed 07:32:11 AM 38.3225 -81.8667 253° West 535 616 40,000  Level Indianapolis Center
Wed 07:33:12 AM 38.2622 -82.0797 250° West 533 613 40,000  Level Indianapolis Center
Wed 07:34:14 AM 38.2119 -82.2589 250° West 536 617 40,000  Level Indianapolis Center
Wed 07:35:15 AM 38.1617 -82.4369 250° West 535 616 40,000  Level Indianapolis Center
Wed 07:36:16 AM 38.1142 -82.6028 250° West 533 613 40,000  Level Indianapolis Center
Wed 07:37:18 AM 38.0550 -82.8094 250° West 536 617 40,000  Level Indianapolis Center
Wed 07:38:19 AM 38.0031 -82.9878 250° West 539 620 40,000  Level Indianapolis Center
Wed 07:39:21 AM 37.9511 -83.1639 250° West 536 617 40,000  Level Indianapolis Center
Wed 07:40:22 AM 37.8997 -83.3392 250° West 534 615 40,000  Level Indianapolis Center
Wed 07:41:24 AM 37.8469 -83.5156 249° West 537 618 40,000  Level Indianapolis Center
Wed 07:42:26 AM 37.7942 -83.6894 249° West 533 613 40,000  Level Indianapolis Center
Wed 07:43:27 AM 37.7425 -83.8650 250° West 534 615 40,000  Level Indianapolis Center
Wed 07:44:29 AM 37.6811 -84.0678 249° West 532 612 40,000  Level Indianapolis Center
Wed 07:45:30 AM 37.6278 -84.2428 249° West 535 616 40,000  Level Indianapolis Center
Wed 07:46:32 AM 37.5742 -84.4175 249° West 535 616 40,000  Level Indianapolis Center
Wed 07:47:33 AM 37.5186 -84.5939 248° West 540 621 40,000  Level Indianapolis Center
Wed 07:48:35 AM 37.4650 -84.7658 249° West 532 612 40,000  Level Indianapolis Center
Wed 07:49:37 AM 37.4122 -84.9397 249° West 531 611 40,000  Level Indianapolis Center
Wed 07:50:38 AM 37.3489 -85.1419 249° West 531 611 40,000  Level Indianapolis Center
Wed 07:51:40 AM 37.2931 -85.3142 248° West 533 613 40,000  Level Indianapolis Center
Wed 07:52:42 AM 37.2378 -85.4875 248° West 534 615 40,000  Level Indianapolis Center
Wed 07:53:43 AM 37.1822 -85.6672 249° West 537 618 40,000  Level Indianapolis Center
Wed 07:54:45 AM 37.1258 -85.8406 248° West 536 617 40,000  Level Indianapolis Center
Wed 07:55:46 AM 37.0692 -86.0125 248° West 532 612 40,000  Level Indianapolis Center
Wed 07:56:48 AM 37.0131 -86.1842 248° West 531 611 40,000  Level Indianapolis Center
Wed 07:57:50 AM 36.9564 -86.3567 248° West 532 612 40,000  Level Indianapolis Center
Wed 07:58:51 AM 36.8986 -86.5275 247° West 531 611 40,000  Level Indianapolis Center
Wed 07:59:53 AM 36.8369 -86.6981 246° West 534 615 40,000  Level Indianapolis Center
Wed 08:00:54 AM 36.7664 -86.8947 246° West 534 615 40,000  Level Indianapolis Center
Wed 08:01:56 AM 36.7058 -87.0633 246° West 534 615 40,000  Level Indianapolis Center
Wed 08:02:58 AM 36.6436 -87.2308 245° Southwest 534 615 40,000  Level Indianapolis Center
Wed 08:03:59 AM 36.5822 -87.3992 246° West 533 613 40,000  Level Indianapolis Center
Wed 08:05:01 AM 36.5208 -87.5661 245° Southwest 529 609 40,000  Level Indianapolis Center
Wed 08:06:14 AM 36.4464 -87.7694 246° West 528 608 40,000  Level Memphis Center
Wed 08:07:14 AM 36.3831 -87.9364 245° Southwest 528 608 40,000  Level Memphis Center
Wed 08:08:14 AM 36.3236 -88.1031 246° West 528 608 40,000  Level Memphis Center
Wed 08:09:14 AM 36.2639 -88.2694 246° West 528 608 40,000  Level Memphis Center
Wed 08:10:14 AM 36.2044 -88.4511 248° West 528 608 40,000  Level Memphis Center
Wed 08:11:14 AM 36.1442 -88.6194 246° West 528 608 40,000  Level Memphis Center
Wed 08:12:14 AM 36.0839 -88.7878 246° West 528 608 40,000  Level Memphis Center
Wed 08:13:14 AM 36.0256 -88.9608 247° West 528 608 40,000  Level Memphis Center
Wed 08:14:14 AM 35.9647 -89.1286 246° West 534 615 40,000  Level Memphis Center
Wed 08:15:14 AM 35.9058 -89.2986 247° West 539 620 40,000  Level Memphis Center
Wed 08:16:14 AM 35.8447 -89.4683 246° West 539 620 40,000  Level Memphis Center
Wed 08:17:14 AM 35.7875 -89.6328 247° West 539 620 40,000 150 Level Memphis Center
Wed 08:18:14 AM 35.7278 -89.7994 246° West 533 613 40,300 1,500 Climbing Memphis Center
Wed 08:19:14 AM 35.6783 -89.9583 249° West 519 597 43,000 1,050 Climbing Memphis Center
Wed 08:20:14 AM 35.6203 -90.1169 246° West 508 585 42,400  Descending Memphis Center
Wed 08:21:14 AM 35.5706 -90.2575 247° West 496 571 43,000 300 Climbing Memphis Center
Wed 08:22:14 AM 35.5122 -90.4158 246° West 504 580 43,000  Level Memphis Center
Wed 08:23:14 AM 35.4536 -90.5761 246° West 516 594 43,000  Level Memphis Center
Wed 08:24:14 AM 35.3969 -90.7367 247° West 516 594 43,000  Level Memphis Center
Wed 08:25:14 AM 35.3336 -90.8967 244° Southwest 521 600 43,000  Level Memphis Center
Wed 08:26:14 AM 35.2786 -91.0539 247° West 521 600 43,000  Level Memphis Center
Wed 08:27:14 AM 35.2108 -91.2211 244° Southwest 509 586 43,000  Level Memphis Center
Wed 08:28:14 AM 35.1514 -91.3806 246° West 509 586 43,000  Level Memphis Center
Wed 08:29:14 AM 35.0936 -91.5372 246° West 517 595 43,000  Level Memphis Center
Wed 08:30:14 AM 35.0314 -91.6961 244° Southwest 517 595 43,000  Level Memphis Center
Wed 08:31:14 AM 34.9714 -91.8547 245° Southwest 522 601 43,000  Level Memphis Center
Wed 08:32:14 AM 34.9108 -92.0133 245° Southwest 522 601 43,000  Level Memphis Center
Wed 08:33:14 AM 34.8503 -92.1664 244° Southwest 515 593 43,000  Level Memphis Center
Wed 08:34:14 AM 34.7875 -92.3244 244° Southwest 515 593 43,000  Level Memphis Center
Wed 08:35:14 AM 34.7286 -92.4822 246° West 521 600 43,000  Level Memphis Center
Wed 08:36:14 AM 34.6675 -92.6347 244° Southwest 521 600 43,000  Level Memphis Center
Wed 08:37:14 AM 34.6081 -92.7897 245° Southwest 516 594 43,000  Level Memphis Center
Wed 08:38:14 AM 34.5467 -92.9442 244° Southwest 516 594 43,000  Level Memphis Center
Wed 08:39:14 AM 34.4872 -93.0936 244° Southwest 510 587 43,000  Level Memphis Center
Wed 08:40:14 AM 34.4272 -93.2453 244° Southwest 505 581 43,000  Level Memphis Center
Wed 08:41:14 AM 34.3700 -93.4006 246° West 507 583 43,000  Level Fort Worth Center
Wed 08:42:14 AM 34.3125 -93.5592 246° West 495 570 43,000 -50 Level Fort Worth Center
Wed 08:43:14 AM 34.2692 -93.7169 252° West 495 570 42,900 -650 Descending Fort Worth Center
Wed 08:44:14 AM 34.2236 -93.8769 251° West 500 575 41,700 -1,300 Descending Fort Worth Center
Wed 08:45:14 AM 34.1506 -94.0206 238° Southwest 500 575 40,300 -1,600 Descending Fort Worth Center
Wed 08:46:14 AM 34.0603 -94.1619 232° Southwest 520 598 38,500 1,350 Descending Fort Worth Center
Wed 08:47:14 AM 33.9742 -94.3028 234° Southwest 531 611 43,000 -2,400 Climbing Fort Worth Center
Wed 08:48:14 AM 33.8878 -94.4436 234° Southwest 531 611 33,700 -5,950 Descending Fort Worth Center
Wed 08:49:14 AM 33.8228 -94.6033 244° Southwest 531 611 31,100 -2,650 Descending Fort Worth Center
Wed 08:50:14 AM 33.7700 -94.7725 249° West 531 611 28,400 -2,500 Descending Fort Worth Center
Wed 08:51:14 AM 33.7189 -94.9311 249° West 531 611 26,100 -2,050 Descending Fort Worth Center
Wed 08:52:14 AM 33.6678 -95.0900 249° West 520 598 24,300 -1,050 Descending Fort Worth Center
Wed 08:53:14 AM 33.6183 -95.2433 249° West 508 585 24,000 -150 Descending Fort Worth Center
Wed 08:54:14 AM 33.5708 -95.3942 249° West 497 572 24,000 -800 Level Fort Worth Center
Wed 08:55:14 AM 33.5208 -95.5422 248° West 492 566 22,400 -2,200 Descending Fort Worth Center
Wed 08:56:14 AM 33.4831 -95.6700 251° West 471 542 19,600 -2,850 Descending Fort Worth Center
Wed 08:57:14 AM 33.4308 -95.8256 248° West 461 531 16,700 -2,900 Descending Fort Worth Center
Wed 08:58:14 AM 33.3925 -95.9431 249° West 435 501 13,800 -2,550 Descending Fort Worth Center
Wed 08:59:14 AM 33.3503 -96.0731 249° West 408 470 11,600 -1,800 Descending Fort Worth Center
Wed 09:00:14 AM 33.3197 -96.1656 248° West 351 404 10,200 -1,300 Descending Fort Worth Center
Wed 09:01:14 AM 33.2853 -96.2703 249° West 315 362 9,000 -850 Descending Fort Worth Center
Wed 09:02:14 AM 33.2547 -96.3478 245° Southwest 300 345 8,500 -1,200 Descending Fort Worth Center
Wed 09:03:14 AM 33.2011 -96.4328 233° Southwest 294 338 6,600 -1,922 Descending Fort Worth Center
Wed 09:04:22 AM 33.1667 -96.5167 244° Southwest 276 318 4,400 -1,680 Descending Dallas / Fort Worth TRACON
Wed 09:05:19 AM 33.1333 -96.6000 244° Southwest 269 310 3,100 -718 Descending Dallas / Fort Worth TRACON
Wed 09:06:19 AM 33.1167 -96.6667 253° West 236 272 3,000 -298 Descending Dallas / Fort Worth TRACON
Wed 09:07:20 AM 33.0833 -96.7500 244° Southwest 237 273 2,500 -517 Descending Dallas / Fort Worth TRACON
Wed 09:08:15 AM 33.0667 -96.8167 253° West 216 249 2,000 -313 Descending Dallas / Fort Worth TRACON
Wed 09:09:15 AM 33.0333 -96.8500 220° Southwest 138 159 1,900 -472 Descending Dallas / Fort Worth TRACON
Wed 09:10:22 AM 32.9833 -96.8500 180° South 127 146 1,000 -806 Descending Dallas / Fort Worth TRACON
Wed 09:15:00 AM 32.9667 -96.8333 North  Level FlightAware Approximate
Wed 09:22:00 AM 32.9686 -96.8364 North  Level Estimated
Wed 09:23:00 AM 32.9667 -96.8333 North  Level FlightAware Approximate
Wed 09:24:00 AM 32.9686 -96.8364 North  Level Estimated
Wed 09:25:00 AM 32.9667 -96.8333 North  Level FlightAware Approximate
Wed 09:26:00 AM 32.9686 -96.8364 North  Level Estimated

Login

Don't have an account? Register now (free) for customized features, flight alerts, and more!